Lemmer, Netherlands
Current Conditions -  °F | °C
As of 3:55 AM on Thursday 27 Nov 2014 (Local Time) from EHLW Reporting Station
Haze Haze  
Wind Chill:   Ceiling: 900
Heat Index:   Visibility: 4mi
Dew Point:   Wind: 12mph
Humidity: 87%   Direction: 140°SE
Pressure: 29.83"   Gusts: NA
Location:  52.85°N, 5.71°E
Report Text: EHLW 270255Z AUTO 14010KT 6000 BR OVC009 05/03 Q1010 GRN
Loading
Personal Weather Stations






























Interactive Weather Map New forecast layout! Learn more

10-Day Weather Forecast

Advertisements
Track Severe Weather on mobile